Time;durP1;ratioP1;P1;durP2;ratioP2;P2;SDS_P1;SDS_P2;PMS_P1;PMS_P2;Temp;Humidity;BMP_temperature;BMP_pressure;BME280_temperature;BME280_humidity;BME280_pressure;Samples;Min_cycle;Max_cycle;Signal;HPM_P1;HPM_P2
2023/07/08 00:02:16;;;;;;;4.80;4.30;;;17.60;99.90;;;;;;4986263;28;20273;-87
2023/07/08 00:04:42;;;;;;;4.27;3.87;;;17.60;99.90;;;;;;5002857;28;20170;-87
2023/07/08 00:07:15;;;;;;;4.23;3.80;;;17.60;99.90;;;;;;5005088;28;20184;-86
2023/07/08 00:09:41;;;;;;;4.30;3.93;;;17.60;99.90;;;;;;5006248;28;20248;-88
2023/07/08 00:12:11;;;;;;;4.07;3.77;;;17.50;99.90;;;;;;5006726;28;20244;-87
2023/07/08 00:14:37;;;;;;;3.97;3.67;;;17.50;99.90;;;;;;4974670;28;20272;-88
2023/07/08 00:17:08;;;;;;;4.67;4.23;;;17.40;99.90;;;;;;5008192;28;20238;-89
2023/07/08 00:19:34;;;;;;;6.27;4.00;;;17.40;99.90;;;;;;4975688;28;20193;-85
2023/07/08 00:22:11;;;;;;;4.83;4.10;;;17.40;99.90;;;;;;5010053;28;20201;-90
2023/07/08 00:24:37;;;;;;;4.67;3.83;;;17.40;99.90;;;;;;5010593;28;20232;-91
2023/07/08 00:27:03;;;;;;;4.00;3.67;;;17.40;99.90;;;;;;5009933;28;20201;-87
2023/07/08 00:29:29;;;;;;;6.47;4.07;;;17.40;99.90;;;;;;5012174;28;20211;-87
2023/07/08 00:31:55;;;;;;;4.47;3.77;;;17.40;99.90;;;;;;5012012;28;20178;-83
2023/07/08 00:34:22;;;;;;;4.63;4.17;;;17.30;99.90;;;;;;5003436;28;20715;-85
2023/07/08 00:36:48;;;;;;;4.40;4.07;;;17.30;99.90;;;;;;5003971;28;20180;-83
2023/07/08 00:39:14;;;;;;;4.67;4.30;;;17.30;99.90;;;;;;5013684;28;20185;-83
2023/07/08 00:41:42;;;;;;;4.60;4.20;;;17.30;99.90;;;;;;5011405;28;20182;-84
2023/07/08 00:44:11;;;;;;;5.03;4.30;;;17.30;99.90;;;;;;5003533;28;20232;-84
2023/07/08 00:46:55;;;;;;;4.43;4.03;;;17.30;99.90;;;;;;5006358;28;20162;-86
2023/07/08 00:49:39;;;;;;;4.57;4.00;;;17.30;99.90;;;;;;5014779;28;20197;-83
2023/07/08 00:52:21;;;;;;;4.10;3.80;;;17.30;99.90;;;;;;5011059;28;20224;-83
2023/07/08 00:54:54;;;;;;;4.10;3.70;;;17.30;99.90;;;;;;5016846;28;20165;-84
2023/07/08 00:57:23;;;;;;;6.13;3.90;;;17.30;99.90;;;;;;5016570;28;20209;-86
2023/07/08 01:00:04;;;;;;;4.37;3.73;;;17.30;99.90;;;;;;5016910;28;20174;-84
2023/07/08 01:02:34;;;;;;;4.10;3.70;;;17.20;99.90;;;;;;5011682;28;20161;-88
2023/07/08 01:05:10;;;;;;;4.07;3.77;;;17.10;99.90;;;;;;5008167;28;20176;-86
2023/07/08 01:07:40;;;;;;;4.67;4.27;;;17.10;99.90;;;;;;5007961;28;20172;-86
2023/07/08 01:10:15;;;;;;;6.77;4.00;;;17.20;99.90;;;;;;5005909;28;20213;-89
2023/07/08 01:12:46;;;;;;;4.30;3.90;;;17.30;99.90;;;;;;5006366;28;20177;-90
2023/07/08 01:15:14;;;;;;;4.30;3.90;;;17.20;99.90;;;;;;5004372;28;20266;-85
2023/07/08 01:17:42;;;;;;;4.47;3.93;;;17.30;99.90;;;;;;5004275;28;20174;-84
2023/07/08 01:20:14;;;;;;;4.73;4.23;;;17.30;99.90;;;;;;5002783;28;20217;-88
2023/07/08 01:22:43;;;;;;;4.20;3.90;;;17.40;99.90;;;;;;5003261;28;20173;-88
2023/07/08 01:25:11;;;;;;;4.83;3.87;;;17.40;99.90;;;;;;4986282;28;20178;-83
2023/07/08 01:27:41;;;;;;;5.03;4.10;;;17.40;99.90;;;;;;4986666;28;20209;-88
2023/07/08 01:30:11;;;;;;;4.27;3.83;;;17.40;99.90;;;;;;5003265;28;20210;-85
2023/07/08 01:32:39;;;;;;;4.93;4.43;;;17.40;99.90;;;;;;5010848;28;20240;-85
2023/07/08 01:35:06;;;;;;;4.67;4.27;;;17.40;99.90;;;;;;5006452;28;20186;-89
2023/07/08 01:37:44;;;;;;;4.70;4.30;;;17.40;99.90;;;;;;5005006;28;20213;-85
2023/07/08 01:40:20;;;;;;;4.13;3.83;;;17.30;99.90;;;;;;5036753;23;20236;-80
2023/07/08 01:42:46;;;;;;;4.67;4.30;;;17.30;99.90;;;;;;5029581;28;20157;-80
2023/07/08 01:45:14;;;;;;;4.30;4.00;;;17.20;99.90;;;;;;5037726;28;20191;-84
2023/07/08 01:47:44;;;;;;;4.63;4.23;;;17.20;99.90;;;;;;5034801;28;20201;-83
2023/07/08 01:50:17;;;;;;;5.30;3.80;;;17.30;99.90;;;;;;5028453;28;20201;-85
2023/07/08 01:52:45;;;;;;;4.27;3.87;;;17.20;99.90;;;;;;5026724;28;20161;-84
2023/07/08 01:55:12;;;;;;;5.07;4.13;;;17.20;99.90;;;;;;5026094;28;20235;-87
2023/07/08 01:57:37;;;;;;;5.03;4.23;;;17.20;99.90;;;;;;5024498;28;20172;-84
2023/07/08 02:00:04;;;;;;;4.60;4.20;;;17.30;99.90;;;;;;5022882;28;20189;-81
2023/07/08 02:02:30;;;;;;;4.83;4.40;;;17.20;99.90;;;;;;5038489;28;20177;-82
2023/07/08 02:04:55;;;;;;;4.67;4.17;;;17.20;99.90;;;;;;5035297;28;20189;-81
2023/07/08 02:07:21;;;;;;;4.70;3.97;;;17.30;99.90;;;;;;5033423;28;20645;-82
2023/07/08 02:09:47;;;;;;;4.53;4.13;;;17.30;99.90;;;;;;5031137;28;20288;-86
2023/07/08 02:12:13;;;;;;;5.10;4.63;;;17.40;99.90;;;;;;5023815;28;20181;-86
2023/07/08 02:14:38;;;;;;;5.60;4.27;;;17.30;99.90;;;;;;5024625;28;20181;-81
2023/07/08 02:17:05;;;;;;;4.33;3.97;;;17.30;99.90;;;;;;5024693;28;20180;-84
2023/07/08 02:19:31;;;;;;;5.37;4.13;;;17.20;99.90;;;;;;5021172;28;20236;-84
2023/07/08 02:21:57;;;;;;;4.60;4.20;;;17.20;99.90;;;;;;5020811;28;20587;-85
2023/07/08 02:24:24;;;;;;;5.10;4.50;;;17.20;99.90;;;;;;5047531;28;20162;-85
2023/07/08 02:26:50;;;;;;;4.43;3.97;;;17.30;99.90;;;;;;5032412;28;20201;-81
2023/07/08 02:29:16;;;;;;;4.97;3.77;;;17.20;99.90;;;;;;5033770;28;20219;-81
2023/07/08 02:31:43;;;;;;;4.63;4.23;;;17.30;99.90;;;;;;5035446;28;20711;-81
2023/07/08 02:34:08;;;;;;;4.47;4.10;;;17.20;99.90;;;;;;5025874;28;20173;-84
2023/07/08 02:36:34;;;;;;;4.60;4.17;;;17.20;99.90;;;;;;5035870;28;20224;-82
2023/07/08 02:39:00;;;;;;;4.57;4.17;;;17.10;99.90;;;;;;5034715;28;20521;-82
2023/07/08 02:41:26;;;;;;;4.67;4.27;;;17.10;99.90;;;;;;5026239;28;20243;-82
2023/07/08 02:43:52;;;;;;;4.93;4.53;;;17.00;99.90;;;;;;5027960;28;20207;-84
2023/07/08 02:46:17;;;;;;;4.40;4.00;;;17.00;99.90;;;;;;5028206;28;20540;-81
2023/07/08 02:48:44;;;;;;;4.57;4.17;;;17.00;99.90;;;;;;5028769;28;20177;-83
2023/07/08 02:51:09;;;;;;;7.63;4.30;;;17.00;99.90;;;;;;5042479;28;20178;-83
2023/07/08 02:53:38;;;;;;;4.87;4.30;;;17.00;99.90;;;;;;5028340;28;20180;-87
2023/07/08 02:56:04;;;;;;;4.67;4.27;;;17.00;99.90;;;;;;5041142;28;20161;-85
2023/07/08 02:58:30;;;;;;;4.87;4.40;;;17.00;99.90;;;;;;5030696;28;20196;-84
2023/07/08 03:01:00;;;;;;;5.27;4.00;;;17.00;99.90;;;;;;5028402;28;20259;-82
2023/07/08 03:03:30;;;;;;;5.00;4.60;;;17.00;99.90;;;;;;5028643;28;20177;-83
2023/07/08 03:06:05;;;;;;;5.10;4.60;;;17.00;99.90;;;;;;5032000;28;20204;-85
2023/07/08 03:08:31;;;;;;;5.30;4.80;;;17.00;99.90;;;;;;5029089;28;20156;-84
2023/07/08 03:10:59;;;;;;;5.77;4.67;;;17.10;99.90;;;;;;5028460;28;20176;-79
2023/07/08 03:13:29;;;;;;;4.60;4.20;;;17.10;99.90;;;;;;5027433;28;20169;-84
2023/07/08 03:15:59;;;;;;;5.03;4.17;;;17.00;99.90;;;;;;5029750;28;20189;-81
2023/07/08 03:18:29;;;;;;;4.93;4.43;;;17.00;99.90;;;;;;5030824;28;20191;-84
2023/07/08 03:20:56;;;;;;;4.90;4.30;;;17.00;99.90;;;;;;5029020;28;20644;-84
2023/07/08 03:23:24;;;;;;;5.43;4.43;;;17.00;99.90;;;;;;5035076;28;20192;-81
2023/07/08 03:25:50;;;;;;;6.73;5.07;;;16.90;99.90;;;;;;5038472;28;20652;-82
2023/07/08 03:28:16;;;;;;;4.53;4.13;;;16.90;99.90;;;;;;5034895;28;20188;-80
2023/07/08 03:30:54;;;;;;;4.70;4.30;;;16.90;99.90;;;;;;5030696;28;20209;-83
2023/07/08 03:33:20;;;;;;;7.17;4.80;;;16.90;99.90;;;;;;5031663;28;20208;-87
2023/07/08 03:35:46;;;;;;;4.57;4.17;;;16.90;99.90;;;;;;5032280;28;20185;-82
2023/07/08 03:38:13;;;;;;;5.63;4.83;;;16.90;99.90;;;;;;5028959;28;20202;-82
2023/07/08 03:40:39;;;;;;;4.93;4.30;;;16.90;99.90;;;;;;5040500;28;20236;-85
2023/07/08 03:43:08;;;;;;;4.53;4.20;;;16.90;99.90;;;;;;5047968;28;20173;-86
2023/07/08 03:45:35;;;;;;;5.17;4.67;;;17.00;99.90;;;;;;5050689;28;20168;-86
2023/07/08 03:48:00;;;;;;;5.43;4.30;;;16.90;99.90;;;;;;5045169;28;20202;-81
2023/07/08 03:50:28;;;;;;;5.00;4.50;;;16.90;99.90;;;;;;5027565;28;20219;-88
2023/07/08 03:52:56;;;;;;;4.67;4.27;;;16.80;99.90;;;;;;5048032;28;20195;-87
2023/07/08 03:55:22;;;;;;;6.40;4.37;;;16.80;99.90;;;;;;5048616;28;20236;-85
2023/07/08 03:58:01;;;;;;;4.40;4.00;;;16.80;99.90;;;;;;5048063;28;20204;-88
2023/07/08 04:00:29;;;;;;;4.87;4.37;;;16.80;99.90;;;;;;5052218;28;20164;-86
2023/07/08 04:02:55;;;;;;;5.03;4.40;;;16.80;99.90;;;;;;5060022;28;20164;-84
2023/07/08 04:05:25;;;;;;;6.07;4.30;;;16.80;99.90;;;;;;5060064;28;20185;-82
2023/07/08 04:07:53;;;;;;;5.13;4.33;;;16.80;99.90;;;;;;5059789;28;20164;-82
2023/07/08 04:10:20;;;;;;;4.53;4.13;;;16.80;99.90;;;;;;5050468;28;20266;-85
2023/07/08 04:12:46;;;;;;;6.27;5.17;;;16.80;99.90;;;;;;5054994;28;20180;-84
2023/07/08 04:15:13;;;;;;;8.20;4.27;;;16.90;99.90;;;;;;5060095;28;20180;-82
2023/07/08 04:17:44;;;;;;;5.60;4.37;;;16.90;99.90;;;;;;5041177;28;20195;-82
2023/07/08 04:20:10;;;;;;;4.23;3.93;;;16.80;99.90;;;;;;5060110;28;20165;-81
2023/07/08 04:22:38;;;;;;;5.20;4.23;;;16.90;99.90;;;;;;5033715;28;20185;-87
2023/07/08 04:25:06;;;;;;;5.07;4.23;;;17.00;99.90;;;;;;5049603;28;20178;-81
2023/07/08 04:27:32;;;;;;;4.73;4.27;;;17.00;99.90;;;;;;5050119;28;20187;-80
2023/07/08 04:30:02;;;;;;;6.73;3.97;;;17.00;99.90;;;;;;5049416;28;20214;-80
2023/07/08 04:32:31;;;;;;;4.50;4.17;;;16.90;99.90;;;;;;5027796;28;20180;-79
2023/07/08 04:34:59;;;;;;;4.57;4.17;;;17.00;99.90;;;;;;5029654;28;20192;-82
2023/07/08 04:37:25;;;;;;;5.73;4.23;;;17.00;99.90;;;;;;5044712;28;20169;-81
2023/07/08 04:39:51;;;;;;;4.87;4.27;;;17.10;99.90;;;;;;5047469;28;20239;-83
2023/07/08 04:42:18;;;;;;;4.97;4.47;;;17.10;99.90;;;;;;5027413;28;20660;-81
2023/07/08 04:44:45;;;;;;;4.80;4.30;;;17.20;99.90;;;;;;5047427;28;20195;-82
2023/07/08 04:47:13;;;;;;;4.80;4.37;;;17.20;99.90;;;;;;5047637;28;20180;-80
2023/07/08 04:49:43;;;;;;;4.77;4.37;;;17.40;99.90;;;;;;5044306;28;20255;-81
2023/07/08 04:52:09;;;;;;;4.83;4.43;;;17.30;99.90;;;;;;5042024;28;20180;-82
2023/07/08 04:54:35;;;;;;;5.40;4.30;;;17.30;99.90;;;;;;5046805;28;20229;-83
2023/07/08 04:57:02;;;;;;;4.53;4.00;;;17.30;99.90;;;;;;5049946;28;20184;-81
2023/07/08 04:59:34;;;;;;;3.93;3.63;;;17.40;99.90;;;;;;5058982;28;20168;-79
2023/07/08 05:02:00;;;;;;;4.40;4.10;;;17.40;99.90;;;;;;5034309;28;20202;-81
2023/07/08 05:04:26;;;;;;;5.67;4.50;;;17.40;99.90;;;;;;5049817;28;20173;-88
2023/07/08 05:06:52;;;;;;;4.70;4.30;;;17.50;99.90;;;;;;5045743;28;20274;-84
2023/07/08 05:09:17;;;;;;;4.97;4.40;;;17.60;99.90;;;;;;5029070;28;20219;-88
2023/07/08 05:11:45;;;;;;;4.00;3.70;;;17.70;99.90;;;;;;5049146;28;20551;-87
2023/07/08 05:14:12;;;;;;;4.33;3.93;;;17.70;99.90;;;;;;5048330;28;20226;-87
2023/07/08 05:16:38;;;;;;;4.30;4.00;;;17.80;99.90;;;;;;5046519;28;20179;-85
2023/07/08 05:19:04;;;;;;;5.67;4.70;;;18.00;99.90;;;;;;5046292;28;20592;-84
2023/07/08 05:21:33;;;;;;;4.37;4.07;;;18.00;99.90;;;;;;5046986;28;20183;-83
2023/07/08 05:24:00;;;;;;;5.50;4.50;;;18.00;99.90;;;;;;5054609;28;20176;-85
2023/07/08 05:26:26;;;;;;;4.43;3.93;;;18.10;99.90;;;;;;5032778;28;20191;-81
2023/07/08 05:28:52;;;;;;;4.47;4.10;;;18.20;99.90;;;;;;5055216;28;20230;-83
2023/07/08 05:31:19;;;;;;;4.70;3.90;;;18.30;99.90;;;;;;5049574;28;20179;-84
2023/07/08 05:33:45;;;;;;;4.77;4.37;;;18.30;99.90;;;;;;5044537;28;20180;-86
2023/07/08 05:36:12;;;;;;;4.10;3.80;;;18.40;99.90;;;;;;5026069;28;20184;-87
2023/07/08 05:38:38;;;;;;;4.00;3.70;;;18.40;99.90;;;;;;5023269;28;20188;-83
2023/07/08 05:41:04;;;;;;;4.87;4.47;;;18.50;99.90;;;;;;5051709;28;20248;-83
2023/07/08 05:43:30;;;;;;;6.10;3.83;;;18.60;99.90;;;;;;5024925;28;20196;-83
2023/07/08 05:46:00;;;;;;;4.23;3.93;;;18.70;99.90;;;;;;5038858;28;20188;-87
2023/07/08 05:48:27;;;;;;;4.83;4.17;;;18.80;99.90;;;;;;5028748;28;20177;-87
2023/07/08 05:50:54;;;;;;;4.50;4.10;;;18.80;99.90;;;;;;5045534;28;20231;-85
2023/07/08 05:53:20;;;;;;;5.27;4.60;;;18.90;99.90;;;;;;5032727;28;20205;-80
2023/07/08 05:55:47;;;;;;;4.87;4.37;;;18.90;99.90;;;;;;4989622;28;20219;-85
2023/07/08 05:58:15;;;;;;;4.60;4.20;;;18.90;99.90;;;;;;5004216;28;20697;-87
2023/07/08 06:00:45;;;;;;;4.20;3.87;;;18.90;99.90;;;;;;5023170;28;20180;-82
2023/07/08 06:03:12;;;;;;;4.40;4.00;;;19.00;99.90;;;;;;5018993;28;20170;-85
2023/07/08 06:05:38;;;;;;;4.43;3.97;;;19.10;99.90;;;;;;5018433;28;20173;-81
2023/07/08 06:08:07;;;;;;;4.30;3.90;;;19.30;99.90;;;;;;5022311;28;20181;-84
2023/07/08 06:10:33;;;;;;;4.37;3.97;;;19.30;99.90;;;;;;5014998;28;20696;-85
2023/07/08 06:12:59;;;;;;;4.93;4.33;;;19.40;99.90;;;;;;5020471;28;20183;-83
2023/07/08 06:15:24;;;;;;;5.23;4.73;;;19.50;99.90;;;;;;5002216;28;20181;-84
2023/07/08 06:17:50;;;;;;;5.00;4.50;;;19.50;99.90;;;;;;5005195;28;20184;-83
2023/07/08 06:20:16;;;;;;;5.20;4.40;;;19.50;99.90;;;;;;5005560;28;20177;-86
2023/07/08 06:22:43;;;;;;;4.40;3.93;;;19.60;99.90;;;;;;5021415;28;20173;-84
2023/07/08 06:25:09;;;;;;;4.93;4.50;;;19.70;99.90;;;;;;5023631;28;20180;-85
2023/07/08 06:27:34;;;;;;;4.70;4.30;;;19.80;99.90;;;;;;5023953;28;20165;-84
2023/07/08 06:30:00;;;;;;;4.87;4.37;;;19.90;99.90;;;;;;5038522;28;20197;-84
2023/07/08 06:32:26;;;;;;;4.07;3.77;;;20.10;99.90;;;;;;5018046;28;20177;-82
2023/07/08 06:34:52;;;;;;;4.90;4.40;;;20.10;99.90;;;;;;5006992;28;20275;-83
2023/07/08 06:37:17;;;;;;;6.20;4.57;;;20.20;99.90;;;;;;5018247;28;20178;-84
2023/07/08 06:39:44;;;;;;;4.73;4.33;;;20.30;99.90;;;;;;5000541;28;20220;-83
2023/07/08 06:42:10;;;;;;;4.00;3.63;;;20.40;99.90;;;;;;5018230;28;20170;-84
2023/07/08 06:44:37;;;;;;;4.97;4.47;;;20.50;99.90;;;;;;5002454;28;20181;-84
2023/07/08 06:47:03;;;;;;;6.27;4.00;;;20.60;99.90;;;;;;5000768;28;20185;-80
2023/07/08 06:49:29;;;;;;;5.20;4.20;;;20.70;99.90;;;;;;5017470;28;20222;-83
2023/07/08 06:51:57;;;;;;;4.77;3.80;;;20.80;99.90;;;;;;5000546;28;20208;-83
2023/07/08 06:54:23;;;;;;;4.33;4.03;;;20.70;99.90;;;;;;5000308;28;20184;-83
2023/07/08 06:56:48;;;;;;;4.40;4.00;;;20.80;99.90;;;;;;5018779;28;20173;-83
2023/07/08 06:59:14;;;;;;;4.47;4.07;;;20.90;99.90;;;;;;5017682;28;20185;-84
2023/07/08 07:01:40;;;;;;;6.27;5.20;;;21.00;99.90;;;;;;5026742;28;20189;-85
2023/07/08 07:04:06;;;;;;;4.30;3.90;;;21.10;99.90;;;;;;5014062;28;20189;-83
2023/07/08 07:06:31;;;;;;;4.17;3.87;;;21.20;99.90;;;;;;5018787;28;20693;-83
2023/07/08 07:08:57;;;;;;;4.60;4.20;;;21.40;99.90;;;;;;5000190;28;20215;-84
2023/07/08 07:11:23;;;;;;;4.77;4.10;;;21.60;99.90;;;;;;5017772;28;20592;-84
2023/07/08 07:13:49;;;;;;;5.97;4.00;;;21.70;99.90;;;;;;5000909;28;20184;-84
2023/07/08 07:16:15;;;;;;;3.93;3.63;;;21.90;99.90;;;;;;5020413;28;20193;-84
2023/07/08 07:18:41;;;;;;;4.43;4.03;;;22.00;99.90;;;;;;5010751;28;20193;-84
2023/07/08 07:21:07;;;;;;;4.17;3.77;;;22.30;99.90;;;;;;5030040;28;20189;-83
2023/07/08 07:23:33;;;;;;;4.77;4.33;;;22.40;99.90;;;;;;5027422;28;20173;-84
2023/07/08 07:25:58;;;;;;;3.83;3.57;;;22.40;99.90;;;;;;5026156;28;20180;-84
2023/07/08 07:28:24;;;;;;;3.90;3.60;;;22.50;99.90;;;;;;5036054;28;20181;-84
2023/07/08 07:30:57;;;;;;;3.93;3.63;;;22.70;99.90;;;;;;5030484;28;20692;-82
2023/07/08 07:33:23;;;;;;;4.35;4.05;;;22.70;99.90;;;;;;5012703;28;20260;-83
2023/07/08 07:35:49;;;;;;;8.00;7.00;;;22.80;99.90;;;;;;5018677;28;20201;-83
2023/07/08 07:38:16;;;;;;;5.05;4.47;;;22.80;99.90;;;;;;4999149;28;20182;-81
2023/07/08 07:40:42;;;;;;;4.10;3.53;;;22.80;99.90;;;;;;5008214;28;20218;-83
2023/07/08 07:43:08;;;;;;;4.53;3.80;;;22.90;99.80;;;;;;5007833;28;20180;-84
2023/07/08 07:45:34;;;;;;;4.22;3.83;;;22.90;99.90;;;;;;4980818;28;20174;-83
2023/07/08 07:48:01;;;;;;;4.18;3.88;;;22.90;99.30;;;;;;4997453;28;20716;-83
2023/07/08 07:50:27;;;;;;;3.55;3.33;;;23.10;99.30;;;;;;4996888;28;20202;-85
2023/07/08 07:52:53;;;;;;;4.00;3.70;;;23.20;99.40;;;;;;4996757;28;20220;-81
2023/07/08 07:55:19;;;;;;;3.70;3.42;;;23.40;99.90;;;;;;4996915;28;20173;-84
2023/07/08 07:57:48;;;;;;;4.82;3.85;;;23.40;99.90;;;;;;5001040;28;20170;-84
2023/07/08 08:00:14;;;;;;;3.45;3.15;;;23.50;99.90;;;;;;4998387;28;20270;-82
2023/07/08 08:02:41;;;;;;;3.78;3.40;;;23.60;99.70;;;;;;4981062;28;20650;-82
2023/07/08 08:05:07;;;;;;;3.97;3.67;;;23.70;99.30;;;;;;4979655;28;20224;-82
2023/07/08 08:07:33;;;;;;;4.30;3.35;;;23.80;99.00;;;;;;4996494;28;20632;-84
2023/07/08 08:09:58;;;;;;;3.85;3.55;;;23.80;99.30;;;;;;4996609;28;20288;-83
2023/07/08 08:12:24;;;;;;;3.80;3.50;;;23.90;99.50;;;;;;4979036;28;20174;-82
2023/07/08 08:14:51;;;;;;;3.97;3.60;;;23.90;99.40;;;;;;4978937;28;20179;-84
2023/07/08 08:17:17;;;;;;;4.60;3.90;;;23.90;98.60;;;;;;4995871;28;20228;-84
2023/07/08 08:19:43;;;;;;;4.20;3.88;;;24.00;99.00;;;;;;4996671;28;20180;-83
2023/07/08 08:22:08;;;;;;;4.50;3.72;;;24.00;98.90;;;;;;4978840;28;20265;-82
2023/07/08 08:24:34;;;;;;;3.70;3.40;;;24.10;97.90;;;;;;4979133;28;20178;-81
2023/07/08 08:27:00;;;;;;;4.15;3.80;;;24.20;97.80;;;;;;4996661;28;20684;-82
2023/07/08 08:29:26;;;;;;;4.05;3.33;;;24.20;98.00;;;;;;4978672;28;20205;-83
2023/07/08 08:31:54;;;;;;;3.22;3.03;;;24.10;97.20;;;;;;4996496;28;20237;-84
2023/07/08 08:34:20;;;;;;;3.38;3.17;;;24.30;94.90;;;;;;4997670;28;20646;-83
2023/07/08 08:36:46;;;;;;;4.10;2.92;;;24.40;95.10;;;;;;5000528;28;20635;-83
2023/07/08 08:39:12;;;;;;;3.20;2.90;;;24.50;94.70;;;;;;4991298;28;20193;-83
2023/07/08 08:41:41;;;;;;;4.07;3.20;;;24.50;93.50;;;;;;5002184;28;20237;-85
2023/07/08 08:44:14;;;;;;;3.85;3.42;;;24.50;94.50;;;;;;5015315;28;20185;-84
2023/07/08 08:47:00;;;;;;;4.95;3.17;;;24.60;95.80;;;;;;5017310;28;20170;-82
2023/07/08 08:50:04;;;;;;;3.35;3.15;;;24.50;95.50;;;;;;5006650;28;20265;-82
2023/07/08 08:52:30;;;;;;;3.70;3.45;;;24.50;95.60;;;;;;4927024;29;20187;-82
2023/07/08 08:54:56;;;;;;;5.63;4.15;;;24.60;95.70;;;;;;4961923;28;20191;-83
2023/07/08 08:57:32;;;;;;;3.72;3.42;;;24.60;95.10;;;;;;4958272;29;20187;-84
2023/07/08 08:59:59;;;;;;;3.72;3.42;;;24.60;95.90;;;;;;4940299;29;20186;-84
2023/07/08 09:02:35;;;;;;;3.95;3.65;;;24.70;95.80;;;;;;4939914;29;20195;-83
2023/07/08 09:05:05;;;;;;;5.45;4.47;;;24.80;96.30;;;;;;4970522;29;20227;-80
2023/07/08 09:07:40;;;;;;;3.83;3.60;;;24.90;97.60;;;;;;4968745;28;20188;-83
2023/07/08 09:10:29;;;;;;;4.03;3.72;;;25.00;97.00;;;;;;4957074;29;20206;-83
2023/07/08 09:12:57;;;;;;;4.80;4.40;;;25.10;96.70;;;;;;4957649;29;20167;-84
2023/07/08 09:15:25;;;;;;;3.55;3.35;;;25.10;95.50;;;;;;4960293;29;20590;-81
2023/07/08 09:17:56;;;;;;;3.30;3.10;;;25.20;95.40;;;;;;4943048;29;20186;-82
2023/07/08 09:20:28;;;;;;;4.18;3.15;;;25.20;95.00;;;;;;4957714;29;20178;-82
2023/07/08 09:23:01;;;;;;;3.30;3.10;;;25.20;93.70;;;;;;4955648;29;20167;-82
2023/07/08 09:25:45;;;;;;;3.42;3.22;;;25.30;94.00;;;;;;4955675;29;20168;-82
2023/07/08 09:28:13;;;;;;;3.25;3.05;;;25.30;94.30;;;;;;4990060;28;20193;-83
2023/07/08 09:30:39;;;;;;;3.40;3.20;;;25.40;94.20;;;;;;5013828;28;20212;-81
2023/07/08 09:33:09;;;;;;;3.33;3.10;;;25.50;95.00;;;;;;5013902;28;20227;-80
2023/07/08 09:35:46;;;;;;;3.00;2.80;;;25.60;94.20;;;;;;5023079;28;20177;-82
2023/07/08 09:38:22;;;;;;;4.63;4.00;;;25.60;93.80;;;;;;5020491;28;20166;-81
2023/07/08 09:40:51;;;;;;;3.40;3.10;;;25.70;93.90;;;;;;5028169;28;20703;-81
2023/07/08 09:43:28;;;;;;;3.45;3.17;;;25.70;93.90;;;;;;5036894;28;20234;-82
2023/07/08 09:45:58;;;;;;;3.83;3.53;;;25.70;92.90;;;;;;5038050;28;20196;-85
2023/07/08 09:48:32;;;;;;;3.28;2.97;;;25.70;93.60;;;;;;5042219;28;20152;-83
2023/07/08 09:50:58;;;;;;;3.55;3.30;;;25.70;93.00;;;;;;5046317;28;20255;-82
2023/07/08 09:53:24;;;;;;;3.88;3.50;;;25.70;93.40;;;;;;5036277;28;20172;-83
2023/07/08 09:55:56;;;;;;;3.40;3.13;;;25.90;93.70;;;;;;5035500;28;20667;-86
2023/07/08 09:58:25;;;;;;;3.33;3.03;;;26.00;93.80;;;;;;5035027;28;20169;-83
2023/07/08 10:00:56;;;;;;;3.65;3.35;;;26.20;93.90;;;;;;5035401;28;20211;-83
2023/07/08 10:03:31;;;;;;;4.00;3.70;;;26.40;94.10;;;;;;5035321;28;20157;-85
2023/07/08 10:06:03;;;;;;;4.53;3.63;;;26.50;94.60;;;;;;5017627;28;20199;-82
2023/07/08 10:08:41;;;;;;;4.43;4.03;;;26.60;93.10;;;;;;5047065;28;20156;-83
2023/07/08 10:11:25;;;;;;;4.32;4.03;;;26.60;92.50;;;;;;5051750;28;20176;-83
2023/07/08 10:13:54;;;;;;;3.88;3.00;;;26.50;92.90;;;;;;5052233;28;20168;-83
2023/07/08 10:16:31;;;;;;;3.70;3.38;;;26.40;92.40;;;;;;5052267;28;20157;-85
2023/07/08 10:18:58;;;;;;;3.38;3.08;;;26.40;92.70;;;;;;5035695;28;20164;-76
2023/07/08 10:21:27;;;;;;;3.55;3.30;;;26.40;94.50;;;;;;5051152;28;20200;-75
2023/07/08 10:24:04;;;;;;;3.67;3.38;;;26.50;92.50;;;;;;5053443;28;20211;-78
2023/07/08 10:26:32;;;;;;;3.58;3.28;;;26.40;92.60;;;;;;5054854;28;20172;-79
2023/07/08 10:29:23;;;;;;;3.60;3.30;;;26.40;93.10;;;;;;5031000;28;20145;-77
2023/07/08 10:31:53;;;;;;;3.75;3.40;;;26.50;92.90;;;;;;5054404;28;20187;-80
2023/07/08 10:34:45;;;;;;;3.22;3.03;;;26.60;93.60;;;;;;5049591;28;20169;-77
2023/07/08 10:37:25;;;;;;;3.42;3.22;;;26.50;93.40;;;;;;5045737;28;20553;-77
2023/07/08 10:40:00;;;;;;;3.45;3.17;;;26.30;92.60;;;;;;5050201;28;20319;-80
2023/07/08 10:42:43;;;;;;;3.65;3.30;;;26.30;93.10;;;;;;5055793;28;20187;-79
2023/07/08 10:45:23;;;;;;;3.22;2.97;;;26.30;93.00;;;;;;5040724;28;20165;-79
2023/07/08 10:48:11;;;;;;;3.00;2.83;;;26.30;93.10;;;;;;5039818;28;20172;-77
2023/07/08 10:51:04;;;;;;;4.28;3.88;;;26.30;91.50;;;;;;5038497;28;20668;-79
2023/07/08 10:54:11;;;;;;;4.53;3.25;;;26.40;93.00;;;;;;5037089;28;20208;-77
2023/07/08 10:57:15;;;;;;;3.78;3.58;;;26.40;92.40;;;;;;5037904;28;20170;-78
2023/07/08 11:00:09;;;;;;;3.05;2.83;;;26.50;92.50;;;;;;5018266;28;20196;-76
2023/07/08 11:02:47;;;;;;;3.30;3.10;;;26.50;92.50;;;;;;5053206;28;20176;-79
2023/07/08 11:05:31;;;;;;;3.40;3.20;;;26.60;92.30;;;;;;5041377;28;20220;-76
2023/07/08 11:08:29;;;;;;;3.60;3.30;;;26.60;93.30;;;;;;5029786;28;20179;-81
2023/07/08 11:11:09;;;;;;;3.40;3.20;;;26.60;93.50;;;;;;5055136;28;20191;-81
2023/07/08 11:13:44;;;;;;;3.75;3.35;;;26.60;93.60;;;;;;5029926;28;20172;-83
2023/07/08 11:16:16;;;;;;;3.40;3.10;;;26.60;93.50;;;;;;5023566;28;20647;-84
2023/07/08 11:19:08;;;;;;;3.60;3.30;;;26.60;93.00;;;;;;5042079;28;20167;-83
2023/07/08 11:21:58;;;;;;;3.65;3.35;;;26.70;93.30;;;;;;5039194;28;20656;-82
2023/07/08 11:24:37;;;;;;;4.00;3.25;;;26.70;93.40;;;;;;5018589;28;20172;-80
2023/07/08 11:27:10;;;;;;;4.43;4.13;;;26.80;93.70;;;;;;5019216;28;20172;-77
2023/07/08 11:29:59;;;;;;;3.20;3.00;;;26.90;93.60;;;;;;5039473;28;20692;-81
2023/07/08 11:32:29;;;;;;;4.18;3.78;;;27.00;93.40;;;;;;5037767;28;20176;-81
2023/07/08 11:34:57;;;;;;;3.75;3.45;;;27.20;93.10;;;;;;5019218;28;20176;-84
2023/07/08 11:37:24;;;;;;;3.70;3.45;;;27.20;92.90;;;;;;5037035;28;20224;-81
2023/07/08 11:39:58;;;;;;;3.53;3.25;;;27.30;92.40;;;;;;5033446;28;20231;-79
2023/07/08 11:42:40;;;;;;;4.25;3.83;;;27.30;92.10;;;;;;5035638;28;20173;-84
2023/07/08 11:45:34;;;;;;;3.97;3.28;;;27.40;92.20;;;;;;5037742;28;20156;-83
2023/07/08 11:48:13;;;;;;;3.13;2.95;;;27.50;92.50;;;;;;5026966;28;20247;-82
2023/07/08 11:50:42;;;;;;;3.58;3.38;;;27.50;91.90;;;;;;5017835;28;20204;-83
2023/07/08 11:53:12;;;;;;;5.43;3.55;;;27.50;91.30;;;;;;5018605;28;20172;-78
2023/07/08 11:55:42;;;;;;;3.70;3.50;;;27.40;91.50;;;;;;5035744;28;20234;-83
2023/07/08 11:58:26;;;;;;;3.25;3.05;;;27.10;91.80;;;;;;5035972;28;20165;-78
2023/07/08 12:01:03;;;;;;;4.15;3.85;;;27.10;92.80;;;;;;5017560;28;20510;-80
2023/07/08 12:03:40;;;;;;;3.83;2.92;;;27.10;93.40;;;;;;5035731;28;20680;-81
2023/07/08 12:06:27;;;;;;;5.00;3.88;;;27.00;93.50;;;;;;5035250;28;20164;-79
2023/07/08 12:09:14;;;;;;;3.50;3.30;;;27.00;93.70;;;;;;5036153;28;20242;-82
2023/07/08 12:11:44;;;;;;;3.67;3.38;;;27.10;92.60;;;;;;5036944;28;20160;-80
2023/07/08 12:14:10;;;;;;;4.03;3.72;;;27.00;93.40;;;;;;5035398;28;20164;-77
2023/07/08 12:16:36;;;;;;;4.00;3.60;;;27.00;93.10;;;;;;5034991;28;20192;-76
2023/07/08 12:19:04;;;;;;;4.65;4.00;;;26.90;92.50;;;;;;5035176;28;20184;-78
2023/07/08 12:21:35;;;;;;;3.90;3.60;;;26.80;93.70;;;;;;5044995;28;20240;-77
2023/07/08 12:24:11;;;;;;;4.05;3.65;;;26.80;92.90;;;;;;5018566;28;20180;-77
2023/07/08 12:26:36;;;;;;;4.28;3.80;;;26.80;92.40;;;;;;5035166;28;20157;-76
2023/07/08 12:29:02;;;;;;;4.15;3.75;;;26.80;93.30;;;;;;5034685;28;20826;-78
2023/07/08 12:31:31;;;;;;;3.95;3.65;;;26.90;93.30;;;;;;5034494;28;20556;-76
2023/07/08 12:33:58;;;;;;;5.20;4.07;;;26.90;93.10;;;;;;5017378;28;20172;-76
2023/07/08 12:36:30;;;;;;;3.78;3.47;;;26.90;93.30;;;;;;5034188;28;20180;-76
2023/07/08 12:38:58;;;;;;;4.03;3.70;;;26.90;92.70;;;;;;5034534;28;20165;-75
2023/07/08 12:41:34;;;;;;;3.95;3.63;;;26.90;92.80;;;;;;5034101;28;20228;-77
2023/07/08 12:44:01;;;;;;;3.83;3.53;;;27.00;93.90;;;;;;5034468;28;20195;-77
2023/07/08 12:46:28;;;;;;;3.80;3.50;;;27.00;93.20;;;;;;5034287;28;20640;-78
2023/07/08 12:48:54;;;;;;;3.90;3.60;;;27.10;93.50;;;;;;5034273;28;20184;-77
2023/07/08 12:51:24;;;;;;;3.80;3.50;;;27.10;93.30;;;;;;5034281;28;20179;-77
2023/07/08 12:53:52;;;;;;;3.88;3.58;;;27.00;93.00;;;;;;5037025;28;20153;-77
2023/07/08 12:56:19;;;;;;;4.43;3.50;;;26.90;92.70;;;;;;5034680;28;20176;-78
2023/07/08 12:58:50;;;;;;;3.50;3.22;;;26.90;92.40;;;;;;5036124;28;20177;-78
2023/07/08 13:01:35;;;;;;;3.92;3.63;;;26.90;92.90;;;;;;5037411;28;20180;-75
2023/07/08 13:04:09;;;;;;;3.38;3.15;;;26.90;92.10;;;;;;5044458;28;20165;-75